sensor_id;sensor_type;location;lat;lon;timestamp;pressure;altitude;pressure_sealevel;temperature;humidity
49841;BME280;35738;49.890;5.930;2023-07-16T00:01:55;95975.44;;;14.79;100.00
49841;BME280;35738;49.890;5.930;2023-07-16T00:04:22;95973.47;;;14.79;100.00
49841;BME280;35738;49.890;5.930;2023-07-16T00:06:49;95969.44;;;14.77;100.00
49841;BME280;35738;49.890;5.930;2023-07-16T00:09:16;95958.88;;;14.67;100.00
49841;BME280;35738;49.890;5.930;2023-07-16T00:11:42;95960.19;;;14.57;100.00
49841;BME280;35738;49.890;5.930;2023-07-16T00:14:10;95957.53;;;14.60;100.00
49841;BME280;35738;49.890;5.930;2023-07-16T00:16:38;95969.59;;;14.68;100.00
49841;BME280;35738;49.890;5.930;2023-07-16T00:19:05;95957.81;;;14.71;100.00
49841;BME280;35738;49.890;5.930;2023-07-16T00:21:31;95964.88;;;14.69;100.00
49841;BME280;35738;49.890;5.930;2023-07-16T00:23:58;95953.00;;;14.68;100.00
49841;BME280;35738;49.890;5.930;2023-07-16T00:26:25;95958.97;;;14.70;100.00
49841;BME280;35738;49.890;5.930;2023-07-16T00:28:51;95959.69;;;14.67;100.00
49841;BME280;35738;49.890;5.930;2023-07-16T00:31:18;95950.56;;;14.67;100.00
49841;BME280;35738;49.890;5.930;2023-07-16T00:33:45;95947.34;;;14.65;100.00
49841;BME280;35738;49.890;5.930;2023-07-16T00:36:12;95941.28;;;14.59;100.00
49841;BME280;35738;49.890;5.930;2023-07-16T00:38:39;95945.09;;;14.54;100.00
49841;BME280;35738;49.890;5.930;2023-07-16T00:41:07;95942.50;;;14.46;100.00
49841;BME280;35738;49.890;5.930;2023-07-16T00:43:34;95949.19;;;14.45;100.00
49841;BME280;35738;49.890;5.930;2023-07-16T00:46:01;95954.25;;;14.43;100.00
49841;BME280;35738;49.890;5.930;2023-07-16T00:48:28;95956.91;;;14.39;100.00
49841;BME280;35738;49.890;5.930;2023-07-16T00:50:55;95957.75;;;14.27;100.00
49841;BME280;35738;49.890;5.930;2023-07-16T00:53:22;95964.44;;;14.26;100.00
49841;BME280;35738;49.890;5.930;2023-07-16T00:55:50;95966.41;;;14.26;100.00
49841;BME280;35738;49.890;5.930;2023-07-16T00:58:16;95963.06;;;14.20;100.00
49841;BME280;35738;49.890;5.930;2023-07-16T01:00:44;95962.63;;;14.18;100.00
49841;BME280;35738;49.890;5.930;2023-07-16T01:03:13;95963.19;;;14.12;100.00
49841;BME280;35738;49.890;5.930;2023-07-16T01:08:42;95974.19;;;13.96;100.00
49841;BME280;35738;49.890;5.930;2023-07-16T01:11:07;95969.94;;;13.86;100.00
49841;BME280;35738;49.890;5.930;2023-07-16T01:13:34;95978.13;;;13.83;100.00
49841;BME280;35738;49.890;5.930;2023-07-16T01:16:01;95987.44;;;13.78;100.00
49841;BME280;35738;49.890;5.930;2023-07-16T01:18:28;95990.09;;;13.75;100.00
49841;BME280;35738;49.890;5.930;2023-07-16T01:20:55;95994.25;;;13.68;100.00
49841;BME280;35738;49.890;5.930;2023-07-16T01:26:36;96003.25;;;13.65;100.00
49841;BME280;35738;49.890;5.930;2023-07-16T01:31:41;96008.31;;;13.63;100.00
49841;BME280;35738;49.890;5.930;2023-07-16T01:34:10;96008.31;;;13.63;100.00
49841;BME280;35738;49.890;5.930;2023-07-16T01:36:39;96010.97;;;13.60;100.00
49841;BME280;35738;49.890;5.930;2023-07-16T01:39:06;96006.47;;;13.55;100.00
49841;BME280;35738;49.890;5.930;2023-07-16T01:41:32;96023.28;;;13.50;100.00
49841;BME280;35738;49.890;5.930;2023-07-16T01:43:59;96018.66;;;13.42;100.00
49841;BME280;35738;49.890;5.930;2023-07-16T01:46:25;96035.59;;;13.41;100.00
49841;BME280;35738;49.890;5.930;2023-07-16T01:48:52;96032.91;;;13.32;100.00
49841;BME280;35738;49.890;5.930;2023-07-16T01:51:19;96031.72;;;13.21;100.00
49841;BME280;35738;49.890;5.930;2023-07-16T01:53:46;96038.94;;;13.13;100.00
49841;BME280;35738;49.890;5.930;2023-07-16T01:56:13;96037.78;;;13.14;100.00
49841;BME280;35738;49.890;5.930;2023-07-16T01:58:40;96040.44;;;13.11;100.00
49841;BME280;35738;49.890;5.930;2023-07-16T02:01:06;96049.59;;;13.02;100.00
49841;BME280;35738;49.890;5.930;2023-07-16T02:03:33;96038.44;;;12.99;100.00
49841;BME280;35738;49.890;5.930;2023-07-16T02:06:00;96049.00;;;12.97;100.00
49841;BME280;35738;49.890;5.930;2023-07-16T02:08:26;96038.53;;;12.90;100.00
49841;BME280;35738;49.890;5.930;2023-07-16T02:10:53;96042.66;;;12.84;100.00
49841;BME280;35738;49.890;5.930;2023-07-16T02:13:20;96035.06;;;12.81;100.00
49841;BME280;35738;49.890;5.930;2023-07-16T02:15:46;96039.16;;;12.75;100.00
49841;BME280;35738;49.890;5.930;2023-07-16T02:18:13;96040.19;;;12.70;100.00
49841;BME280;35738;49.890;5.930;2023-07-16T02:20:43;96052.72;;;12.68;100.00
49841;BME280;35738;49.890;5.930;2023-07-16T02:23:10;96049.66;;;12.61;100.00
49841;BME280;35738;49.890;5.930;2023-07-16T02:25:37;96053.56;;;12.60;100.00
49841;BME280;35738;49.890;5.930;2023-07-16T02:28:03;96039.75;;;12.60;100.00
49841;BME280;35738;49.890;5.930;2023-07-16T02:30:30;96042.72;;;12.55;100.00
49841;BME280;35738;49.890;5.930;2023-07-16T02:32:57;96036.97;;;12.48;100.00
49841;BME280;35738;49.890;5.930;2023-07-16T02:35:23;96044.09;;;12.49;100.00
49841;BME280;35738;49.890;5.930;2023-07-16T02:37:50;96047.53;;;12.46;100.00
49841;BME280;35738;49.890;5.930;2023-07-16T02:40:17;96049.13;;;12.47;100.00
49841;BME280;35738;49.890;5.930;2023-07-16T02:42:43;96044.41;;;12.47;100.00
49841;BME280;35738;49.890;5.930;2023-07-16T02:45:10;96043.47;;;12.43;100.00
49841;BME280;35738;49.890;5.930;2023-07-16T02:47:37;96037.38;;;12.37;100.00
49841;BME280;35738;49.890;5.930;2023-07-16T02:50:04;96043.09;;;12.32;100.00
49841;BME280;35738;49.890;5.930;2023-07-16T02:52:31;96045.84;;;12.32;100.00
49841;BME280;35738;49.890;5.930;2023-07-16T02:55:00;96049.41;;;12.33;100.00
49841;BME280;35738;49.890;5.930;2023-07-16T02:57:26;96036.28;;;12.30;100.00
49841;BME280;35738;49.890;5.930;2023-07-16T02:59:53;96040.06;;;12.25;100.00
49841;BME280;35738;49.890;5.930;2023-07-16T03:02:20;96039.59;;;12.23;100.00
49841;BME280;35738;49.890;5.930;2023-07-16T03:04:47;96043.34;;;12.19;100.00
49841;BME280;35738;49.890;5.930;2023-07-16T03:07:13;96043.56;;;12.14;100.00
49841;BME280;35738;49.890;5.930;2023-07-16T03:09:40;96051.22;;;12.08;100.00
49841;BME280;35738;49.890;5.930;2023-07-16T03:12:07;96036.00;;;12.02;100.00
49841;BME280;35738;49.890;5.930;2023-07-16T03:14:34;96038.63;;;11.98;100.00
49841;BME280;35738;49.890;5.930;2023-07-16T03:17:02;96050.00;;;11.97;100.00
49841;BME280;35738;49.890;5.930;2023-07-16T03:19:29;96051.59;;;11.98;100.00
49841;BME280;35738;49.890;5.930;2023-07-16T03:21:56;96047.56;;;11.95;100.00
49841;BME280;35738;49.890;5.930;2023-07-16T03:24:23;96054.56;;;11.93;100.00
49841;BME280;35738;49.890;5.930;2023-07-16T03:26:49;96054.72;;;11.88;100.00
49841;BME280;35738;49.890;5.930;2023-07-16T03:29:21;96056.66;;;11.87;100.00
49841;BME280;35738;49.890;5.930;2023-07-16T03:31:48;96057.47;;;11.88;100.00
49841;BME280;35738;49.890;5.930;2023-07-16T03:34:14;96064.47;;;11.85;100.00
49841;BME280;35738;49.890;5.930;2023-07-16T03:36:41;96069.84;;;11.82;100.00
49841;BME280;35738;49.890;5.930;2023-07-16T03:39:07;96065.78;;;11.79;100.00
49841;BME280;35738;49.890;5.930;2023-07-16T03:41:34;96069.50;;;11.74;100.00
49841;BME280;35738;49.890;5.930;2023-07-16T03:44:00;96085.41;;;11.77;100.00
49841;BME280;35738;49.890;5.930;2023-07-16T03:46:27;96082.00;;;11.72;100.00
49841;BME280;35738;49.890;5.930;2023-07-16T03:48:54;96088.19;;;11.69;100.00
49841;BME280;35738;49.890;5.930;2023-07-16T03:51:21;96093.34;;;11.70;100.00
49841;BME280;35738;49.890;5.930;2023-07-16T03:53:47;96090.13;;;11.68;100.00
49841;BME280;35738;49.890;5.930;2023-07-16T03:56:14;96103.44;;;11.66;100.00
49841;BME280;35738;49.890;5.930;2023-07-16T03:58:41;96109.94;;;11.62;100.00
49841;BME280;35738;49.890;5.930;2023-07-16T04:01:08;96109.78;;;11.58;100.00
49841;BME280;35738;49.890;5.930;2023-07-16T04:03:34;96111.72;;;11.58;100.00
49841;BME280;35738;49.890;5.930;2023-07-16T04:06:06;96115.94;;;11.55;100.00
49841;BME280;35738;49.890;5.930;2023-07-16T04:08:36;96117.91;;;11.55;100.00
49841;BME280;35738;49.890;5.930;2023-07-16T04:11:04;96122.13;;;11.52;100.00
49841;BME280;35738;49.890;5.930;2023-07-16T04:13:31;96127.63;;;11.52;100.00
49841;BME280;35738;49.890;5.930;2023-07-16T04:15:58;96132.00;;;11.53;100.00
49841;BME280;35738;49.890;5.930;2023-07-16T04:18:25;96139.13;;;11.54;100.00
49841;BME280;35738;49.890;5.930;2023-07-16T04:20:52;96131.34;;;11.56;100.00
49841;BME280;35738;49.890;5.930;2023-07-16T04:23:20;96137.31;;;11.58;100.00
49841;BME280;35738;49.890;5.930;2023-07-16T04:25:46;96130.69;;;11.59;100.00
49841;BME280;35738;49.890;5.930;2023-07-16T04:28:13;96138.28;;;11.62;100.00
49841;BME280;35738;49.890;5.930;2023-07-16T04:30:46;96140.72;;;11.64;100.00
49841;BME280;35738;49.890;5.930;2023-07-16T04:33:12;96135.34;;;11.67;100.00
49841;BME280;35738;49.890;5.930;2023-07-16T04:35:39;96132.56;;;11.76;100.00
49841;BME280;35738;49.890;5.930;2023-07-16T04:38:05;96132.56;;;11.85;100.00
49841;BME280;35738;49.890;5.930;2023-07-16T04:40:34;96135.78;;;11.87;100.00
49841;BME280;35738;49.890;5.930;2023-07-16T04:43:00;96128.00;;;11.89;100.00
49841;BME280;35738;49.890;5.930;2023-07-16T04:45:27;96134.16;;;11.94;100.00
49841;BME280;35738;49.890;5.930;2023-07-16T04:47:53;96143.03;;;12.00;100.00
49841;BME280;35738;49.890;5.930;2023-07-16T04:50:20;96130.88;;;12.01;100.00
49841;BME280;35738;49.890;5.930;2023-07-16T04:52:48;96135.06;;;12.07;100.00
49841;BME280;35738;49.890;5.930;2023-07-16T04:55:16;96130.78;;;12.18;100.00
49841;BME280;35738;49.890;5.930;2023-07-16T04:57:42;96130.72;;;12.27;100.00
49841;BME280;35738;49.890;5.930;2023-07-16T05:00:09;96121.59;;;12.35;100.00
49841;BME280;35738;49.890;5.930;2023-07-16T05:02:36;96121.31;;;12.49;100.00
49841;BME280;35738;49.890;5.930;2023-07-16T05:05:03;96103.97;;;12.48;100.00
49841;BME280;35738;49.890;5.930;2023-07-16T05:07:30;96111.81;;;12.67;100.00
49841;BME280;35738;49.890;5.930;2023-07-16T05:09:56;96101.75;;;12.62;100.00
49841;BME280;35738;49.890;5.930;2023-07-16T05:12:23;96089.72;;;12.67;100.00
49841;BME280;35738;49.890;5.930;2023-07-16T05:14:51;96087.97;;;12.83;100.00
49841;BME280;35738;49.890;5.930;2023-07-16T05:17:19;96072.38;;;12.99;100.00
49841;BME280;35738;49.890;5.930;2023-07-16T05:19:45;96061.78;;;13.01;100.00
49841;BME280;35738;49.890;5.930;2023-07-16T05:22:12;96052.63;;;13.10;100.00
49841;BME280;35738;49.890;5.930;2023-07-16T05:24:39;96040.31;;;13.07;100.00
49841;BME280;35738;49.890;5.930;2023-07-16T05:27:05;96037.22;;;13.78;100.00
49841;BME280;35738;49.890;5.930;2023-07-16T05:29:32;96009.13;;;14.41;100.00
49841;BME280;35738;49.890;5.930;2023-07-16T05:31:58;95979.50;;;14.69;100.00
49841;BME280;35738;49.890;5.930;2023-07-16T05:34:25;95951.63;;;15.06;100.00
49841;BME280;35738;49.890;5.930;2023-07-16T05:36:55;95930.63;;;15.36;100.00
49841;BME280;35738;49.890;5.930;2023-07-16T05:39:22;95913.84;;;15.13;100.00
49841;BME280;35738;49.890;5.930;2023-07-16T05:41:48;95912.00;;;15.52;100.00
49841;BME280;35738;49.890;5.930;2023-07-16T05:44:15;95904.63;;;15.92;100.00
49841;BME280;35738;49.890;5.930;2023-07-16T05:46:50;95883.31;;;15.76;100.00
49841;BME280;35738;49.890;5.930;2023-07-16T05:49:17;95890.34;;;16.09;100.00
49841;BME280;35738;49.890;5.930;2023-07-16T05:51:43;95888.38;;;16.48;100.00
49841;BME280;35738;49.890;5.930;2023-07-16T05:54:10;95871.44;;;16.53;100.00
49841;BME280;35738;49.890;5.930;2023-07-16T05:56:37;95855.56;;;16.34;100.00
49841;BME280;35738;49.890;5.930;2023-07-16T05:59:03;95843.09;;;15.86;100.00
49841;BME280;35738;49.890;5.930;2023-07-16T06:01:31;95854.44;;;16.35;100.00
49841;BME280;35738;49.890;5.930;2023-07-16T06:03:57;95841.06;;;16.02;100.00
49841;BME280;35738;49.890;5.930;2023-07-16T06:06:28;95852.00;;;16.34;100.00
49841;BME280;35738;49.890;5.930;2023-07-16T06:08:56;95861.84;;;16.70;100.00
49841;BME280;35738;49.890;5.930;2023-07-16T06:11:22;95840.63;;;16.39;100.00
49841;BME280;35738;49.890;5.930;2023-07-16T06:13:49;95831.25;;;16.66;100.00
49841;BME280;35738;49.890;5.930;2023-07-16T06:16:15;95830.09;;;16.29;100.00
49841;BME280;35738;49.890;5.930;2023-07-16T06:18:42;95844.94;;;16.36;100.00
49841;BME280;35738;49.890;5.930;2023-07-16T06:21:09;95836.59;;;16.78;100.00
49841;BME280;35738;49.890;5.930;2023-07-16T06:23:35;95829.16;;;16.40;100.00
49841;BME280;35738;49.890;5.930;2023-07-16T06:26:02;95853.59;;;16.54;100.00
49841;BME280;35738;49.890;5.930;2023-07-16T06:28:29;95856.25;;;16.28;100.00
49841;BME280;35738;49.890;5.930;2023-07-16T06:30:56;95860.16;;;15.02;100.00
49841;BME280;35738;49.890;5.930;2023-07-16T06:33:22;95893.56;;;15.09;100.00
49841;BME280;35738;49.890;5.930;2023-07-16T06:35:49;95916.66;;;15.48;100.00
49841;BME280;35738;49.890;5.930;2023-07-16T06:38:15;95912.34;;;16.37;100.00
49841;BME280;35738;49.890;5.930;2023-07-16T06:40:46;95889.16;;;15.91;100.00
49841;BME280;35738;49.890;5.930;2023-07-16T06:43:15;95903.44;;;16.47;100.00
49841;BME280;35738;49.890;5.930;2023-07-16T06:45:42;95879.59;;;15.88;100.00
49841;BME280;35738;49.890;5.930;2023-07-16T06:48:09;95914.91;;;15.72;100.00
49841;BME280;35738;49.890;5.930;2023-07-16T06:50:35;95915.59;;;16.04;100.00
49841;BME280;35738;49.890;5.930;2023-07-16T06:53:03;95922.66;;;16.36;100.00
49841;BME280;35738;49.890;5.930;2023-07-16T06:55:31;95917.06;;;15.31;100.00
49841;BME280;35738;49.890;5.930;2023-07-16T06:57:57;95935.47;;;15.08;100.00
49841;BME280;35738;49.890;5.930;2023-07-16T07:00:24;95948.63;;;14.67;100.00
49841;BME280;35738;49.890;5.930;2023-07-16T07:02:50;95959.19;;;15.68;100.00
49841;BME280;35738;49.890;5.930;2023-07-16T07:05:17;95927.81;;;16.76;100.00
49841;BME280;35738;49.890;5.930;2023-07-16T07:07:44;95904.44;;;16.00;100.00
49841;BME280;35738;49.890;5.930;2023-07-16T07:10:12;95898.72;;;17.12;100.00
49841;BME280;35738;49.890;5.930;2023-07-16T07:12:39;95871.59;;;17.06;100.00
49841;BME280;35738;49.890;5.930;2023-07-16T07:15:07;95871.72;;;16.29;100.00
49841;BME280;35738;49.890;5.930;2023-07-16T07:17:34;95896.69;;;16.09;100.00
49841;BME280;35738;49.890;5.930;2023-07-16T07:20:01;95896.28;;;16.65;100.00
49841;BME280;35738;49.890;5.930;2023-07-16T07:22:29;95875.13;;;17.52;100.00
49841;BME280;35738;49.890;5.930;2023-07-16T07:24:55;95863.22;;;18.38;100.00
49841;BME280;35738;49.890;5.930;2023-07-16T07:27:22;95818.22;;;18.66;100.00
49841;BME280;35738;49.890;5.930;2023-07-16T07:29:48;95803.75;;;18.57;100.00
49841;BME280;35738;49.890;5.930;2023-07-16T07:32:22;95813.97;;;18.46;100.00
49841;BME280;35738;49.890;5.930;2023-07-16T07:34:49;95809.94;;;19.21;100.00
49841;BME280;35738;49.890;5.930;2023-07-16T07:37:16;95792.56;;;18.53;100.00
49841;BME280;35738;49.890;5.930;2023-07-16T07:39:42;95798.34;;;18.67;100.00
49841;BME280;35738;49.890;5.930;2023-07-16T07:42:09;95802.78;;;19.23;100.00
49841;BME280;35738;49.890;5.930;2023-07-16T07:44:36;95780.91;;;18.78;100.00
49841;BME280;35738;49.890;5.930;2023-07-16T07:47:04;95788.38;;;18.33;100.00
49841;BME280;35738;49.890;5.930;2023-07-16T07:49:31;95806.69;;;17.70;100.00
49841;BME280;35738;49.890;5.930;2023-07-16T07:51:58;95814.19;;;16.91;100.00
49841;BME280;35738;49.890;5.930;2023-07-16T07:54:24;95839.81;;;15.80;100.00
49841;BME280;35738;49.890;5.930;2023-07-16T07:56:51;95873.94;;;15.65;100.00
49841;BME280;35738;49.890;5.930;2023-07-16T07:59:18;95885.53;;;16.25;100.00
49841;BME280;35738;49.890;5.930;2023-07-16T08:01:44;95867.50;;;16.15;100.00
49841;BME280;35738;49.890;5.930;2023-07-16T08:04:11;95854.34;;;15.93;100.00
49841;BME280;35738;49.890;5.930;2023-07-16T08:06:38;95867.53;;;15.61;100.00
49841;BME280;35738;49.890;5.930;2023-07-16T08:09:04;95899.31;;;15.83;100.00
49841;BME280;35738;49.890;5.930;2023-07-16T08:11:31;95902.16;;;16.25;100.00
49841;BME280;35738;49.890;5.930;2023-07-16T08:13:58;95875.50;;;16.78;100.00
49841;BME280;35738;49.890;5.930;2023-07-16T08:16:24;95872.16;;;17.38;100.00
49841;BME280;35738;49.890;5.930;2023-07-16T08:18:51;95846.38;;;17.14;100.00
49841;BME280;35738;49.890;5.930;2023-07-16T08:21:17;95833.69;;;17.17;100.00
49841;BME280;35738;49.890;5.930;2023-07-16T08:23:48;95825.41;;;17.47;100.00
49841;BME280;35738;49.890;5.930;2023-07-16T08:26:16;95817.03;;;17.17;100.00
49841;BME280;35738;49.890;5.930;2023-07-16T08:28:43;95808.47;;;17.29;100.00
49841;BME280;35738;49.890;5.930;2023-07-16T08:31:13;95800.63;;;16.86;100.00
49841;BME280;35738;49.890;5.930;2023-07-16T08:33:40;95820.19;;;16.93;100.00
49841;BME280;35738;49.890;5.930;2023-07-16T08:36:06;95823.50;;;16.56;100.00
49841;BME280;35738;49.890;5.930;2023-07-16T08:38:33;95849.50;;;16.29;100.00
49841;BME280;35738;49.890;5.930;2023-07-16T08:41:00;95857.03;;;16.90;100.00
49841;BME280;35738;49.890;5.930;2023-07-16T08:43:28;95855.06;;;16.67;100.00
49841;BME280;35738;49.890;5.930;2023-07-16T08:45:55;95861.66;;;17.05;100.00
49841;BME280;35738;49.890;5.930;2023-07-16T08:48:22;95857.59;;;17.48;100.00
49841;BME280;35738;49.890;5.930;2023-07-16T08:50:49;95855.03;;;17.36;100.00
49841;BME280;35738;49.890;5.930;2023-07-16T08:53:16;95859.75;;;17.09;100.00
49841;BME280;35738;49.890;5.930;2023-07-16T08:55:47;95867.78;;;16.68;100.00
49841;BME280;35738;49.890;5.930;2023-07-16T08:58:17;95880.03;;;16.67;100.00
49841;BME280;35738;49.890;5.930;2023-07-16T09:00:45;95888.53;;;16.36;100.00
49841;BME280;35738;49.890;5.930;2023-07-16T09:03:12;95898.31;;;16.49;100.00
49841;BME280;35738;49.890;5.930;2023-07-16T09:05:40;95888.56;;;16.78;100.00
49841;BME280;35738;49.890;5.930;2023-07-16T09:08:07;95898.16;;;17.26;100.00
49841;BME280;35738;49.890;5.930;2023-07-16T09:10:34;95893.25;;;17.42;100.00
49841;BME280;35738;49.890;5.930;2023-07-16T09:13:01;95864.84;;;17.79;100.00
49841;BME280;35738;49.890;5.930;2023-07-16T09:15:29;95853.41;;;17.84;100.00
49841;BME280;35738;49.890;5.930;2023-07-16T09:17:56;95848.75;;;18.25;100.00
49841;BME280;35738;49.890;5.930;2023-07-16T09:20:23;95847.03;;;18.14;100.00
49841;BME280;35738;49.890;5.930;2023-07-16T09:22:53;95833.19;;;18.21;100.00
49841;BME280;35738;49.890;5.930;2023-07-16T09:25:31;95845.09;;;17.88;100.00
49841;BME280;35738;49.890;5.930;2023-07-16T09:28:02;95842.88;;;18.00;100.00
49841;BME280;35738;49.890;5.930;2023-07-16T09:30:32;95849.38;;;18.79;100.00
49841;BME280;35738;49.890;5.930;2023-07-16T09:33:17;95835.31;;;17.71;100.00
49841;BME280;35738;49.890;5.930;2023-07-16T09:35:44;95847.06;;;17.61;100.00
49841;BME280;35738;49.890;5.930;2023-07-16T09:38:11;95859.78;;;17.62;100.00
49841;BME280;35738;49.890;5.930;2023-07-16T09:40:39;95870.38;;;17.26;100.00
49841;BME280;35738;49.890;5.930;2023-07-16T09:43:13;95874.44;;;16.87;100.00
49841;BME280;35738;49.890;5.930;2023-07-16T09:45:41;95895.09;;;17.58;100.00
49841;BME280;35738;49.890;5.930;2023-07-16T09:48:09;95861.28;;;18.08;100.00
49841;BME280;35738;49.890;5.930;2023-07-16T09:50:36;95847.06;;;18.51;100.00
49841;BME280;35738;49.890;5.930;2023-07-16T09:53:04;95837.91;;;18.17;100.00
49841;BME280;35738;49.890;5.930;2023-07-16T09:55:32;95835.47;;;18.45;100.00
49841;BME280;35738;49.890;5.930;2023-07-16T09:58:03;95822.44;;;18.90;100.00
49841;BME280;35738;49.890;5.930;2023-07-16T10:00:32;95821.16;;;18.47;100.00
49841;BME280;35738;49.890;5.930;2023-07-16T10:03:01;95831.91;;;18.48;100.00
49841;BME280;35738;49.890;5.930;2023-07-16T10:05:28;95832.09;;;18.29;100.00
49841;BME280;35738;49.890;5.930;2023-07-16T10:07:59;95834.72;;;17.85;100.00
49841;BME280;35738;49.890;5.930;2023-07-16T10:10:41;95849.91;;;17.64;100.00
49841;BME280;35738;49.890;5.930;2023-07-16T10:13:11;95854.78;;;18.31;100.00
49841;BME280;35738;49.890;5.930;2023-07-16T10:15:39;95820.41;;;18.16;100.00
49841;BME280;35738;49.890;5.930;2023-07-16T10:18:06;95819.00;;;18.63;100.00
49841;BME280;35738;49.890;5.930;2023-07-16T10:20:35;95803.72;;;18.53;100.00
49841;BME280;35738;49.890;5.930;2023-07-16T10:23:13;95798.97;;;18.57;100.00
49841;BME280;35738;49.890;5.930;2023-07-16T10:25:41;95777.44;;;18.51;100.00
49841;BME280;35738;49.890;5.930;2023-07-16T10:28:08;95799.38;;;18.93;100.00
49841;BME280;35738;49.890;5.930;2023-07-16T10:30:34;95806.28;;;19.13;100.00
49841;BME280;35738;49.890;5.930;2023-07-16T10:33:11;95777.28;;;19.21;100.00
49841;BME280;35738;49.890;5.930;2023-07-16T10:35:42;95777.31;;;19.28;100.00
49841;BME280;35738;49.890;5.930;2023-07-16T10:38:09;95758.91;;;19.13;100.00
49841;BME280;35738;49.890;5.930;2023-07-16T10:40:40;95766.06;;;19.14;100.00
49841;BME280;35738;49.890;5.930;2023-07-16T10:43:07;95788.66;;;18.98;100.00
49841;BME280;35738;49.890;5.930;2023-07-16T10:45:34;95775.59;;;19.10;100.00
49841;BME280;35738;49.890;5.930;2023-07-16T10:48:01;95788.09;;;19.30;100.00
49841;BME280;35738;49.890;5.930;2023-07-16T10:50:28;95790.50;;;19.31;100.00
49841;BME280;35738;49.890;5.930;2023-07-16T10:52:58;95778.50;;;19.27;100.00
49841;BME280;35738;49.890;5.930;2023-07-16T10:55:50;95775.34;;;19.29;100.00
49841;BME280;35738;49.890;5.930;2023-07-16T10:58:17;95786.34;;;19.59;100.00
49841;BME280;35738;49.890;5.930;2023-07-16T11:00:44;95766.06;;;19.14;100.00
49841;BME280;35738;49.890;5.930;2023-07-16T11:03:15;95780.00;;;19.69;100.00
49841;BME280;35738;49.890;5.930;2023-07-16T11:05:49;95758.34;;;19.48;100.00
49841;BME280;35738;49.890;5.930;2023-07-16T11:08:22;95764.16;;;19.87;100.00
49841;BME280;35738;49.890;5.930;2023-07-16T11:10:56;95756.03;;;20.69;100.00
49841;BME280;35738;49.890;5.930;2023-07-16T11:13:31;95756.81;;;20.55;100.00
49841;BME280;35738;49.890;5.930;2023-07-16T11:16:08;95757.53;;;20.24;100.00
49841;BME280;35738;49.890;5.930;2023-07-16T11:18:36;95766.59;;;20.03;100.00
49841;BME280;35738;49.890;5.930;2023-07-16T11:21:03;95754.13;;;19.14;100.00
49841;BME280;35738;49.890;5.930;2023-07-16T11:23:33;95756.06;;;19.06;100.00
49841;BME280;35738;49.890;5.930;2023-07-16T11:26:02;95762.59;;;19.31;100.00
49841;BME280;35738;49.890;5.930;2023-07-16T11:28:36;95766.34;;;19.50;100.00
49841;BME280;35738;49.890;5.930;2023-07-16T11:31:14;95758.75;;;19.50;100.00
49841;BME280;35738;49.890;5.930;2023-07-16T11:33:47;95757.56;;;20.38;100.00
49841;BME280;35738;49.890;5.930;2023-07-16T11:36:13;95761.59;;;20.48;100.00
49841;BME280;35738;49.890;5.930;2023-07-16T11:38:41;95758.47;;;20.92;100.00
49841;BME280;35738;49.890;5.930;2023-07-16T11:41:08;95759.66;;;20.84;100.00
49841;BME280;35738;49.890;5.930;2023-07-16T11:43:35;95770.75;;;20.41;100.00
49841;BME280;35738;49.890;5.930;2023-07-16T11:46:03;95780.06;;;19.21;100.00
49841;BME280;35738;49.890;5.930;2023-07-16T11:48:31;95784.78;;;19.68;100.00
49841;BME280;35738;49.890;5.930;2023-07-16T11:50:58;95769.84;;;20.12;100.00
49841;BME280;35738;49.890;5.930;2023-07-16T11:53:25;95762.31;;;20.23;100.00
49841;BME280;35738;49.890;5.930;2023-07-16T11:55:52;95772.28;;;20.28;100.00
49841;BME280;35738;49.890;5.930;2023-07-16T11:58:18;95757.25;;;20.75;100.00
49841;BME280;35738;49.890;5.930;2023-07-16T12:00:45;95778.06;;;21.24;100.00
49841;BME280;35738;49.890;5.930;2023-07-16T12:03:11;95783.34;;;19.99;100.00
49841;BME280;35738;49.890;5.930;2023-07-16T12:05:38;95777.06;;;19.44;100.00
49841;BME280;35738;49.890;5.930;2023-07-16T12:08:19;95783.47;;;19.48;100.00
49841;BME280;35738;49.890;5.930;2023-07-16T12:10:46;95787.44;;;20.20;100.00
49841;BME280;35738;49.890;5.930;2023-07-16T12:13:13;95765.25;;;20.84;100.00
49841;BME280;35738;49.890;5.930;2023-07-16T12:15:39;95771.59;;;20.67;100.00
49841;BME280;35738;49.890;5.930;2023-07-16T12:18:06;95769.56;;;20.46;100.00
49841;BME280;35738;49.890;5.930;2023-07-16T12:20:34;95772.97;;;20.00;100.00
49841;BME280;35738;49.890;5.930;2023-07-16T12:23:00;95772.72;;;19.50;100.00
49841;BME280;35738;49.890;5.930;2023-07-16T12:25:27;95765.91;;;19.48;100.00
49841;BME280;35738;49.890;5.930;2023-07-16T12:27:54;95776.78;;;19.09;100.00
49841;BME280;35738;49.890;5.930;2023-07-16T12:30:24;95770.78;;;19.03;100.00
49841;BME280;35738;49.890;5.930;2023-07-16T12:33:04;95768.31;;;19.46;100.00
49841;BME280;35738;49.890;5.930;2023-07-16T12:35:31;95766.00;;;19.58;100.00
49841;BME280;35738;49.890;5.930;2023-07-16T12:37:58;95771.59;;;19.62;100.00
49841;BME280;35738;49.890;5.930;2023-07-16T12:40:25;95765.47;;;20.15;100.00
49841;BME280;35738;49.890;5.930;2023-07-16T12:42:53;95762.81;;;20.57;100.00
49841;BME280;35738;49.890;5.930;2023-07-16T12:45:19;95761.22;;;20.78;100.00
49841;BME280;35738;49.890;5.930;2023-07-16T12:47:46;95771.34;;;19.92;100.00
49841;BME280;35738;49.890;5.930;2023-07-16T12:50:13;95777.22;;;19.69;100.00
49841;BME280;35738;49.890;5.930;2023-07-16T12:52:39;95772.19;;;19.99;100.00
49841;BME280;35738;49.890;5.930;2023-07-16T12:55:06;95781.16;;;20.44;100.00
49841;BME280;35738;49.890;5.930;2023-07-16T12:57:33;95772.38;;;20.53;100.00
49841;BME280;35738;49.890;5.930;2023-07-16T12:59:59;95770.81;;;20.73;100.00
49841;BME280;35738;49.890;5.930;2023-07-16T13:02:28;95775.69;;;19.82;100.00